Winslow Lindbergh Regional Airport Winslow US
ICAO: KINW
IATA: INW
Category: Medium
Scheduled Services: No

Elevation: 4941 ft
TransAlt. 18000 ft.

Airport Communications:
ASOS:118.875
ALBUQUERQUE CNTR:124.5
PRESCOTT RDO:122.6
CTAF/UNICOM:122.8

KINW Zoom In..

If you have problems with the map follow the link
https://www.worldairports.se/pages/airport.php?
ICAO=KINW

Runways:

(A) RW 04 length 6236 ft width 75 ft
---- / hdg 45

(B) RW 11 length 7100 ft width 150 ft
---- / hdg 106

(C) RW 22 length 6236 ft width 75 ft
---- / hdg 225

(D) RW 29 length 7100 ft width 150 ft
---- / hdg 286

Location; KINW
Day. 19 / Time. 00.56 Zulu
* Altimeter: 30.35
* Temperature: 03° c. 37.4°f.
* Wind from: 300° Speed 05 kn.
Dewpoint: -09° c.
Visibility: 10 Statute Miles.
Clouds: Clear (automated report).

KINW 190056Z AUTO 30005KT 10SM CLR 03/M09 A3035 RMK AO2 SLP302 T00281094


Wind From 300°
Speed 05 kn.

 
 
jpsmedia worldairports.se 2020   terms of use